sensor_id;sensor_type;location;lat;lon;timestamp;P1;durP1;ratioP1;P2;durP2;ratioP2
74415;SDS011;62850;42.428;25.618;2023-04-16T00:02:11;6.90;;;2.10;;
74415;SDS011;62850;42.428;25.618;2023-04-16T00:04:36;7.05;;;2.33;;
74415;SDS011;62850;42.428;25.618;2023-04-16T00:07:02;8.10;;;2.30;;
74415;SDS011;62850;42.428;25.618;2023-04-16T00:09:28;9.32;;;2.85;;
74415;SDS011;62850;42.428;25.618;2023-04-16T00:11:53;8.20;;;2.25;;
74415;SDS011;62850;42.428;25.618;2023-04-16T00:14:19;8.50;;;2.40;;
74415;SDS011;62850;42.428;25.618;2023-04-16T00:16:44;7.30;;;2.40;;
74415;SDS011;62850;42.428;25.618;2023-04-16T00:19:10;5.85;;;2.20;;
74415;SDS011;62850;42.428;25.618;2023-04-16T00:21:36;9.93;;;2.45;;
74415;SDS011;62850;42.428;25.618;2023-04-16T00:24:01;7.05;;;2.30;;
74415;SDS011;62850;42.428;25.618;2023-04-16T00:26:27;6.40;;;2.50;;
74415;SDS011;62850;42.428;25.618;2023-04-16T00:28:52;8.48;;;2.30;;
74415;SDS011;62850;42.428;25.618;2023-04-16T00:31:17;6.80;;;2.22;;
74415;SDS011;62850;42.428;25.618;2023-04-16T00:33:51;9.40;;;2.55;;
74415;SDS011;62850;42.428;25.618;2023-04-16T00:36:17;8.52;;;2.30;;
74415;SDS011;62850;42.428;25.618;2023-04-16T00:38:42;11.00;;;2.65;;
74415;SDS011;62850;42.428;25.618;2023-04-16T00:41:08;5.75;;;2.55;;
74415;SDS011;62850;42.428;25.618;2023-04-16T00:43:33;8.45;;;2.75;;
74415;SDS011;62850;42.428;25.618;2023-04-16T00:45:59;8.40;;;2.00;;
74415;SDS011;62850;42.428;25.618;2023-04-16T00:48:25;7.43;;;2.20;;
74415;SDS011;62850;42.428;25.618;2023-04-16T00:50:52;10.95;;;2.38;;
74415;SDS011;62850;42.428;25.618;2023-04-16T00:53:19;9.55;;;2.58;;
74415;SDS011;62850;42.428;25.618;2023-04-16T00:55:44;10.20;;;2.50;;
74415;SDS011;62850;42.428;25.618;2023-04-16T00:58:10;9.15;;;2.70;;
74415;SDS011;62850;42.428;25.618;2023-04-16T01:00:35;9.10;;;2.42;;
74415;SDS011;62850;42.428;25.618;2023-04-16T01:03:01;7.35;;;2.30;;
74415;SDS011;62850;42.428;25.618;2023-04-16T01:05:27;5.18;;;2.33;;
74415;SDS011;62850;42.428;25.618;2023-04-16T01:07:52;10.07;;;2.30;;
74415;SDS011;62850;42.428;25.618;2023-04-16T01:10:18;10.45;;;3.03;;
74415;SDS011;62850;42.428;25.618;2023-04-16T01:12:43;8.38;;;2.60;;
74415;SDS011;62850;42.428;25.618;2023-04-16T01:15:09;8.35;;;2.55;;
74415;SDS011;62850;42.428;25.618;2023-04-16T01:17:35;9.98;;;2.70;;
74415;SDS011;62850;42.428;25.618;2023-04-16T01:20:00;7.13;;;2.53;;
74415;SDS011;62850;42.428;25.618;2023-04-16T01:22:26;10.07;;;3.28;;
74415;SDS011;62850;42.428;25.618;2023-04-16T01:24:52;9.98;;;3.00;;
74415;SDS011;62850;42.428;25.618;2023-04-16T01:27:17;9.10;;;2.60;;
74415;SDS011;62850;42.428;25.618;2023-04-16T01:29:43;11.07;;;3.08;;
74415;SDS011;62850;42.428;25.618;2023-04-16T01:32:08;10.65;;;2.85;;
74415;SDS011;62850;42.428;25.618;2023-04-16T01:34:34;9.93;;;3.20;;
74415;SDS011;62850;42.428;25.618;2023-04-16T01:36:59;8.60;;;2.97;;
74415;SDS011;62850;42.428;25.618;2023-04-16T01:39:25;13.90;;;3.83;;
74415;SDS011;62850;42.428;25.618;2023-04-16T01:41:51;9.30;;;3.20;;
74415;SDS011;62850;42.428;25.618;2023-04-16T01:44:16;8.25;;;2.92;;
74415;SDS011;62850;42.428;25.618;2023-04-16T01:46:42;10.98;;;2.88;;
74415;SDS011;62850;42.428;25.618;2023-04-16T01:49:08;10.77;;;3.33;;
74415;SDS011;62850;42.428;25.618;2023-04-16T01:51:34;7.60;;;2.70;;
74415;SDS011;62850;42.428;25.618;2023-04-16T01:53:59;10.43;;;2.80;;
74415;SDS011;62850;42.428;25.618;2023-04-16T01:56:25;9.38;;;3.58;;
74415;SDS011;62850;42.428;25.618;2023-04-16T01:58:51;10.45;;;2.97;;
74415;SDS011;62850;42.428;25.618;2023-04-16T02:01:16;12.35;;;3.88;;
74415;SDS011;62850;42.428;25.618;2023-04-16T02:03:42;11.98;;;3.33;;
74415;SDS011;62850;42.428;25.618;2023-04-16T02:06:08;7.57;;;2.95;;
74415;SDS011;62850;42.428;25.618;2023-04-16T02:08:33;9.95;;;2.85;;
74415;SDS011;62850;42.428;25.618;2023-04-16T02:10:59;7.60;;;2.97;;
74415;SDS011;62850;42.428;25.618;2023-04-16T02:13:25;8.55;;;3.08;;
74415;SDS011;62850;42.428;25.618;2023-04-16T02:15:50;12.60;;;3.60;;
74415;SDS011;62850;42.428;25.618;2023-04-16T02:18:16;16.08;;;3.72;;
74415;SDS011;62850;42.428;25.618;2023-04-16T02:20:43;10.57;;;3.97;;
74415;SDS011;62850;42.428;25.618;2023-04-16T02:23:10;13.32;;;3.65;;
74415;SDS011;62850;42.428;25.618;2023-04-16T02:25:39;8.63;;;3.00;;
74415;SDS011;62850;42.428;25.618;2023-04-16T02:28:09;11.50;;;3.65;;
74415;SDS011;62850;42.428;25.618;2023-04-16T02:30:37;9.73;;;3.20;;
74415;SDS011;62850;42.428;25.618;2023-04-16T02:33:04;11.25;;;3.60;;
74415;SDS011;62850;42.428;25.618;2023-04-16T02:35:31;13.63;;;3.80;;
74415;SDS011;62850;42.428;25.618;2023-04-16T02:37:57;10.27;;;3.50;;
74415;SDS011;62850;42.428;25.618;2023-04-16T02:40:23;10.15;;;3.78;;
74415;SDS011;62850;42.428;25.618;2023-04-16T02:42:49;11.75;;;3.67;;
74415;SDS011;62850;42.428;25.618;2023-04-16T02:45:14;10.40;;;3.72;;
74415;SDS011;62850;42.428;25.618;2023-04-16T02:47:40;10.55;;;4.50;;
74415;SDS011;62850;42.428;25.618;2023-04-16T02:50:05;9.57;;;3.70;;
74415;SDS011;62850;42.428;25.618;2023-04-16T02:52:31;9.90;;;3.50;;
74415;SDS011;62850;42.428;25.618;2023-04-16T02:54:57;9.75;;;3.58;;
74415;SDS011;62850;42.428;25.618;2023-04-16T02:57:23;11.10;;;3.90;;
74415;SDS011;62850;42.428;25.618;2023-04-16T02:59:49;10.05;;;3.97;;
74415;SDS011;62850;42.428;25.618;2023-04-16T03:02:14;12.93;;;4.18;;
74415;SDS011;62850;42.428;25.618;2023-04-16T03:04:40;11.38;;;4.05;;
74415;SDS011;62850;42.428;25.618;2023-04-16T03:07:06;12.80;;;4.00;;
74415;SDS011;62850;42.428;25.618;2023-04-16T03:09:33;12.32;;;4.15;;
74415;SDS011;62850;42.428;25.618;2023-04-16T03:11:59;14.13;;;4.68;;
74415;SDS011;62850;42.428;25.618;2023-04-16T03:14:26;13.75;;;4.30;;
74415;SDS011;62850;42.428;25.618;2023-04-16T03:16:51;11.20;;;3.80;;
74415;SDS011;62850;42.428;25.618;2023-04-16T03:19:17;9.80;;;3.47;;
74415;SDS011;62850;42.428;25.618;2023-04-16T03:21:42;9.43;;;3.70;;
74415;SDS011;62850;42.428;25.618;2023-04-16T03:24:08;10.70;;;4.00;;
74415;SDS011;62850;42.428;25.618;2023-04-16T03:26:33;10.27;;;4.03;;
74415;SDS011;62850;42.428;25.618;2023-04-16T03:28:59;11.43;;;3.80;;
74415;SDS011;62850;42.428;25.618;2023-04-16T03:31:26;8.45;;;3.53;;
74415;SDS011;62850;42.428;25.618;2023-04-16T03:33:51;12.77;;;4.25;;
74415;SDS011;62850;42.428;25.618;2023-04-16T03:36:17;14.55;;;4.07;;
74415;SDS011;62850;42.428;25.618;2023-04-16T03:38:42;11.60;;;4.07;;
74415;SDS011;62850;42.428;25.618;2023-04-16T03:41:07;10.80;;;4.20;;
74415;SDS011;62850;42.428;25.618;2023-04-16T03:43:33;12.25;;;4.15;;
74415;SDS011;62850;42.428;25.618;2023-04-16T03:45:58;13.95;;;5.07;;
74415;SDS011;62850;42.428;25.618;2023-04-16T03:48:24;10.65;;;3.88;;
74415;SDS011;62850;42.428;25.618;2023-04-16T03:50:49;9.05;;;3.80;;
74415;SDS011;62850;42.428;25.618;2023-04-16T03:53:15;10.52;;;4.07;;
74415;SDS011;62850;42.428;25.618;2023-04-16T03:55:40;11.95;;;4.05;;
74415;SDS011;62850;42.428;25.618;2023-04-16T03:58:06;16.30;;;4.85;;
74415;SDS011;62850;42.428;25.618;2023-04-16T04:00:32;13.35;;;4.03;;
74415;SDS011;62850;42.428;25.618;2023-04-16T04:02:57;14.05;;;4.95;;
74415;SDS011;62850;42.428;25.618;2023-04-16T04:05:23;13.02;;;4.78;;
74415;SDS011;62850;42.428;25.618;2023-04-16T04:07:48;11.13;;;4.43;;
74415;SDS011;62850;42.428;25.618;2023-04-16T04:10:14;15.88;;;4.85;;
74415;SDS011;62850;42.428;25.618;2023-04-16T04:12:40;13.85;;;4.82;;
74415;SDS011;62850;42.428;25.618;2023-04-16T04:15:05;12.30;;;3.95;;
74415;SDS011;62850;42.428;25.618;2023-04-16T04:17:31;12.88;;;4.55;;
74415;SDS011;62850;42.428;25.618;2023-04-16T04:19:57;11.70;;;4.30;;
74415;SDS011;62850;42.428;25.618;2023-04-16T04:22:22;11.63;;;4.60;;
74415;SDS011;62850;42.428;25.618;2023-04-16T04:24:48;12.98;;;4.70;;
74415;SDS011;62850;42.428;25.618;2023-04-16T04:27:13;12.50;;;4.60;;
74415;SDS011;62850;42.428;25.618;2023-04-16T04:29:38;14.80;;;4.43;;
74415;SDS011;62850;42.428;25.618;2023-04-16T04:32:04;15.02;;;5.03;;
74415;SDS011;62850;42.428;25.618;2023-04-16T04:34:30;12.52;;;5.05;;
74415;SDS011;62850;42.428;25.618;2023-04-16T04:36:55;12.15;;;4.63;;
74415;SDS011;62850;42.428;25.618;2023-04-16T04:39:21;11.55;;;4.55;;
74415;SDS011;62850;42.428;25.618;2023-04-16T04:41:46;10.88;;;4.60;;
74415;SDS011;62850;42.428;25.618;2023-04-16T04:44:12;13.52;;;4.88;;
74415;SDS011;62850;42.428;25.618;2023-04-16T04:46:38;12.13;;;4.80;;
74415;SDS011;62850;42.428;25.618;2023-04-16T04:49:04;14.00;;;5.13;;
74415;SDS011;62850;42.428;25.618;2023-04-16T04:51:30;12.77;;;5.18;;
74415;SDS011;62850;42.428;25.618;2023-04-16T04:53:56;12.30;;;4.68;;
74415;SDS011;62850;42.428;25.618;2023-04-16T04:56:22;11.18;;;4.50;;
74415;SDS011;62850;42.428;25.618;2023-04-16T04:58:50;16.08;;;5.07;;
74415;SDS011;62850;42.428;25.618;2023-04-16T05:01:16;11.80;;;5.13;;
74415;SDS011;62850;42.428;25.618;2023-04-16T05:03:41;14.27;;;4.88;;
74415;SDS011;62850;42.428;25.618;2023-04-16T05:06:07;12.98;;;5.03;;
74415;SDS011;62850;42.428;25.618;2023-04-16T05:08:32;16.60;;;5.15;;
74415;SDS011;62850;42.428;25.618;2023-04-16T05:10:58;12.30;;;5.40;;
74415;SDS011;62850;42.428;25.618;2023-04-16T05:13:23;10.65;;;5.18;;
74415;SDS011;62850;42.428;25.618;2023-04-16T05:15:49;12.60;;;5.35;;
74415;SDS011;62850;42.428;25.618;2023-04-16T05:18:14;14.13;;;5.07;;
74415;SDS011;62850;42.428;25.618;2023-04-16T05:20:40;13.93;;;5.53;;
74415;SDS011;62850;42.428;25.618;2023-04-16T05:23:05;16.33;;;5.90;;
74415;SDS011;62850;42.428;25.618;2023-04-16T05:25:31;15.05;;;6.03;;
74415;SDS011;62850;42.428;25.618;2023-04-16T05:27:56;17.92;;;5.63;;
74415;SDS011;62850;42.428;25.618;2023-04-16T05:30:22;13.07;;;5.45;;
74415;SDS011;62850;42.428;25.618;2023-04-16T05:32:47;11.48;;;4.95;;
74415;SDS011;62850;42.428;25.618;2023-04-16T05:35:12;15.48;;;5.78;;
74415;SDS011;62850;42.428;25.618;2023-04-16T05:37:38;15.85;;;5.47;;
74415;SDS011;62850;42.428;25.618;2023-04-16T05:40:03;16.83;;;5.30;;
74415;SDS011;62850;42.428;25.618;2023-04-16T05:42:29;15.75;;;6.32;;
74415;SDS011;62850;42.428;25.618;2023-04-16T05:44:56;14.77;;;6.18;;
74415;SDS011;62850;42.428;25.618;2023-04-16T05:47:21;14.52;;;6.97;;
74415;SDS011;62850;42.428;25.618;2023-04-16T05:49:48;18.45;;;6.88;;
74415;SDS011;62850;42.428;25.618;2023-04-16T05:52:13;14.65;;;7.22;;
74415;SDS011;62850;42.428;25.618;2023-04-16T05:54:39;15.18;;;6.60;;
74415;SDS011;62850;42.428;25.618;2023-04-16T05:57:04;16.35;;;7.47;;
74415;SDS011;62850;42.428;25.618;2023-04-16T05:59:30;14.30;;;7.25;;
74415;SDS011;62850;42.428;25.618;2023-04-16T06:01:55;19.17;;;7.85;;
74415;SDS011;62850;42.428;25.618;2023-04-16T06:04:21;19.02;;;7.47;;
74415;SDS011;62850;42.428;25.618;2023-04-16T06:06:47;21.90;;;7.90;;
74415;SDS011;62850;42.428;25.618;2023-04-16T06:09:12;16.80;;;7.32;;
74415;SDS011;62850;42.428;25.618;2023-04-16T06:11:38;18.63;;;7.55;;
74415;SDS011;62850;42.428;25.618;2023-04-16T06:14:03;23.85;;;8.68;;
74415;SDS011;62850;42.428;25.618;2023-04-16T06:16:29;15.38;;;8.10;;
74415;SDS011;62850;42.428;25.618;2023-04-16T06:18:54;17.38;;;7.63;;
74415;SDS011;62850;42.428;25.618;2023-04-16T06:21:20;24.05;;;9.13;;
74415;SDS011;62850;42.428;25.618;2023-04-16T06:23:46;19.48;;;9.05;;
74415;SDS011;62850;42.428;25.618;2023-04-16T06:26:11;19.13;;;8.88;;
74415;SDS011;62850;42.428;25.618;2023-04-16T06:28:37;22.02;;;8.70;;
74415;SDS011;62850;42.428;25.618;2023-04-16T06:31:02;27.20;;;10.10;;
74415;SDS011;62850;42.428;25.618;2023-04-16T06:33:28;20.88;;;10.23;;
74415;SDS011;62850;42.428;25.618;2023-04-16T06:35:53;26.38;;;10.63;;
74415;SDS011;62850;42.428;25.618;2023-04-16T06:38:19;22.30;;;11.48;;
74415;SDS011;62850;42.428;25.618;2023-04-16T06:40:44;22.67;;;11.70;;
74415;SDS011;62850;42.428;25.618;2023-04-16T06:43:10;29.67;;;12.80;;
74415;SDS011;62850;42.428;25.618;2023-04-16T06:45:35;24.83;;;12.23;;
74415;SDS011;62850;42.428;25.618;2023-04-16T06:48:01;19.83;;;10.75;;
74415;SDS011;62850;42.428;25.618;2023-04-16T06:50:27;25.10;;;12.88;;
74415;SDS011;62850;42.428;25.618;2023-04-16T06:52:53;23.60;;;11.13;;
74415;SDS011;62850;42.428;25.618;2023-04-16T06:55:19;25.98;;;12.20;;
74415;SDS011;62850;42.428;25.618;2023-04-16T06:57:45;25.65;;;12.30;;
74415;SDS011;62850;42.428;25.618;2023-04-16T07:00:10;28.55;;;12.93;;
74415;SDS011;62850;42.428;25.618;2023-04-16T07:02:36;24.08;;;11.52;;
74415;SDS011;62850;42.428;25.618;2023-04-16T07:05:02;28.60;;;12.73;;
74415;SDS011;62850;42.428;25.618;2023-04-16T07:07:28;24.55;;;11.68;;
74415;SDS011;62850;42.428;25.618;2023-04-16T07:09:53;23.35;;;12.60;;
74415;SDS011;62850;42.428;25.618;2023-04-16T07:12:19;25.52;;;12.73;;
74415;SDS011;62850;42.428;25.618;2023-04-16T07:14:45;19.80;;;11.68;;
74415;SDS011;62850;42.428;25.618;2023-04-16T07:17:11;25.50;;;10.43;;
74415;SDS011;62850;42.428;25.618;2023-04-16T07:19:36;18.52;;;10.65;;
74415;SDS011;62850;42.428;25.618;2023-04-16T07:22:02;24.90;;;10.80;;
74415;SDS011;62850;42.428;25.618;2023-04-16T07:24:28;20.35;;;10.50;;
74415;SDS011;62850;42.428;25.618;2023-04-16T07:26:54;27.35;;;11.25;;
74415;SDS011;62850;42.428;25.618;2023-04-16T07:29:19;18.70;;;10.27;;
74415;SDS011;62850;42.428;25.618;2023-04-16T07:31:45;16.60;;;8.57;;
74415;SDS011;62850;42.428;25.618;2023-04-16T07:34:10;19.80;;;8.57;;
74415;SDS011;62850;42.428;25.618;2023-04-16T07:36:36;13.93;;;8.00;;
74415;SDS011;62850;42.428;25.618;2023-04-16T07:39:03;15.88;;;7.47;;
74415;SDS011;62850;42.428;25.618;2023-04-16T07:41:29;16.83;;;7.25;;
74415;SDS011;62850;42.428;25.618;2023-04-16T07:43:55;19.02;;;8.75;;
74415;SDS011;62850;42.428;25.618;2023-04-16T07:46:21;13.68;;;6.65;;
74415;SDS011;62850;42.428;25.618;2023-04-16T07:48:46;16.67;;;7.60;;
74415;SDS011;62850;42.428;25.618;2023-04-16T07:51:12;15.35;;;7.63;;
74415;SDS011;62850;42.428;25.618;2023-04-16T07:53:37;16.98;;;7.80;;
74415;SDS011;62850;42.428;25.618;2023-04-16T07:56:03;16.20;;;8.02;;
74415;SDS011;62850;42.428;25.618;2023-04-16T07:58:28;14.35;;;6.82;;
74415;SDS011;62850;42.428;25.618;2023-04-16T08:00:54;20.27;;;8.70;;
74415;SDS011;62850;42.428;25.618;2023-04-16T08:03:20;19.20;;;9.43;;
74415;SDS011;62850;42.428;25.618;2023-04-16T08:05:45;17.08;;;8.93;;
74415;SDS011;62850;42.428;25.618;2023-04-16T08:08:11;19.52;;;9.65;;
74415;SDS011;62850;42.428;25.618;2023-04-16T08:10:36;22.15;;;11.43;;
74415;SDS011;62850;42.428;25.618;2023-04-16T08:13:03;26.65;;;11.73;;
74415;SDS011;62850;42.428;25.618;2023-04-16T08:15:28;19.02;;;10.65;;
74415;SDS011;62850;42.428;25.618;2023-04-16T08:17:54;18.67;;;9.40;;
74415;SDS011;62850;42.428;25.618;2023-04-16T08:20:20;20.45;;;9.80;;
74415;SDS011;62850;42.428;25.618;2023-04-16T08:22:45;22.85;;;10.95;;
74415;SDS011;62850;42.428;25.618;2023-04-16T08:25:12;27.95;;;13.70;;
74415;SDS011;62850;42.428;25.618;2023-04-16T08:27:38;23.70;;;13.82;;
74415;SDS011;62850;42.428;25.618;2023-04-16T08:30:03;22.40;;;13.48;;
74415;SDS011;62850;42.428;25.618;2023-04-16T08:32:30;23.92;;;13.88;;
74415;SDS011;62850;42.428;25.618;2023-04-16T08:34:56;21.83;;;12.68;;
74415;SDS011;62850;42.428;25.618;2023-04-16T08:37:22;23.27;;;13.77;;
74415;SDS011;62850;42.428;25.618;2023-04-16T08:39:47;23.52;;;12.30;;
74415;SDS011;62850;42.428;25.618;2023-04-16T08:42:29;20.13;;;12.73;;
74415;SDS011;62850;42.428;25.618;2023-04-16T08:45:03;22.20;;;12.32;;
74415;SDS011;62850;42.428;25.618;2023-04-16T08:47:33;24.30;;;12.15;;
74415;SDS011;62850;42.428;25.618;2023-04-16T08:49:59;22.00;;;12.45;;
74415;SDS011;62850;42.428;25.618;2023-04-16T08:52:27;21.90;;;12.25;;
74415;SDS011;62850;42.428;25.618;2023-04-16T08:57:29;20.38;;;11.35;;
74415;SDS011;62850;42.428;25.618;2023-04-16T09:00:03;22.73;;;11.23;;
74415;SDS011;62850;42.428;25.618;2023-04-16T09:02:30;24.67;;;12.07;;
74415;SDS011;62850;42.428;25.618;2023-04-16T09:04:57;22.83;;;11.32;;
74415;SDS011;62850;42.428;25.618;2023-04-16T09:07:24;22.35;;;11.23;;
74415;SDS011;62850;42.428;25.618;2023-04-16T09:09:52;20.30;;;11.95;;
74415;SDS011;62850;42.428;25.618;2023-04-16T09:12:18;18.48;;;10.32;;
74415;SDS011;62850;42.428;25.618;2023-04-16T09:14:51;18.67;;;10.07;;
74415;SDS011;62850;42.428;25.618;2023-04-16T09:17:19;20.73;;;11.50;;
74415;SDS011;62850;42.428;25.618;2023-04-16T09:19:45;24.42;;;11.10;;
74415;SDS011;62850;42.428;25.618;2023-04-16T09:22:11;18.83;;;9.65;;
74415;SDS011;62850;42.428;25.618;2023-04-16T09:24:36;19.08;;;9.88;;
74415;SDS011;62850;42.428;25.618;2023-04-16T09:27:02;25.52;;;10.70;;
74415;SDS011;62850;42.428;25.618;2023-04-16T09:29:32;21.45;;;10.52;;
74415;SDS011;62850;42.428;25.618;2023-04-16T09:32:00;19.90;;;10.07;;
74415;SDS011;62850;42.428;25.618;2023-04-16T09:34:31;21.00;;;11.23;;
74415;SDS011;62850;42.428;25.618;2023-04-16T09:37:17;16.70;;;8.35;;
74415;SDS011;62850;42.428;25.618;2023-04-16T09:39:42;20.13;;;10.32;;
74415;SDS011;62850;42.428;25.618;2023-04-16T09:42:09;17.63;;;8.85;;
74415;SDS011;62850;42.428;25.618;2023-04-16T09:44:36;15.15;;;8.43;;
74415;SDS011;62850;42.428;25.618;2023-04-16T09:47:08;15.95;;;7.50;;
74415;SDS011;62850;42.428;25.618;2023-04-16T09:49:34;17.92;;;8.02;;
74415;SDS011;62850;42.428;25.618;2023-04-16T09:52:08;16.63;;;9.10;;
74415;SDS011;62850;42.428;25.618;2023-04-16T09:54:38;18.42;;;9.63;;
74415;SDS011;62850;42.428;25.618;2023-04-16T09:57:10;19.42;;;9.93;;
74415;SDS011;62850;42.428;25.618;2023-04-16T09:59:36;20.70;;;9.35;;
74415;SDS011;62850;42.428;25.618;2023-04-16T10:02:01;18.40;;;9.23;;
74415;SDS011;62850;42.428;25.618;2023-04-16T10:04:27;20.90;;;9.05;;
74415;SDS011;62850;42.428;25.618;2023-04-16T10:07:02;17.33;;;9.02;;
74415;SDS011;62850;42.428;25.618;2023-04-16T10:09:36;21.63;;;8.27;;
74415;SDS011;62850;42.428;25.618;2023-04-16T10:12:02;21.13;;;8.27;;
74415;SDS011;62850;42.428;25.618;2023-04-16T10:14:28;17.65;;;8.18;;
74415;SDS011;62850;42.428;25.618;2023-04-16T10:16:54;19.48;;;8.05;;
74415;SDS011;62850;42.428;25.618;2023-04-16T10:19:20;18.73;;;8.68;;
74415;SDS011;62850;42.428;25.618;2023-04-16T10:21:46;17.77;;;8.55;;
74415;SDS011;62850;42.428;25.618;2023-04-16T10:24:12;19.23;;;8.02;;
74415;SDS011;62850;42.428;25.618;2023-04-16T10:26:40;16.48;;;8.00;;
74415;SDS011;62850;42.428;25.618;2023-04-16T10:29:06;15.82;;;7.63;;
74415;SDS011;62850;42.428;25.618;2023-04-16T10:31:33;15.73;;;7.35;;
74415;SDS011;62850;42.428;25.618;2023-04-16T10:34:00;20.60;;;7.70;;
74415;SDS011;62850;42.428;25.618;2023-04-16T10:36:26;19.00;;;6.72;;
74415;SDS011;62850;42.428;25.618;2023-04-16T10:38:52;17.58;;;6.72;;
74415;SDS011;62850;42.428;25.618;2023-04-16T10:41:24;12.95;;;5.68;;
74415;SDS011;62850;42.428;25.618;2023-04-16T10:43:50;15.02;;;5.03;;
74415;SDS011;62850;42.428;25.618;2023-04-16T10:52:06;15.50;;;5.63;;
74415;SDS011;62850;42.428;25.618;2023-04-16T10:54:34;15.57;;;5.65;;
74415;SDS011;62850;42.428;25.618;2023-04-16T10:57:04;12.73;;;5.50;;
74415;SDS011;62850;42.428;25.618;2023-04-16T10:59:34;13.63;;;5.45;;
74415;SDS011;62850;42.428;25.618;2023-04-16T11:02:12;14.98;;;5.13;;
74415;SDS011;62850;42.428;25.618;2023-04-16T11:04:41;13.65;;;5.28;;
74415;SDS011;62850;42.428;25.618;2023-04-16T11:14:50;14.02;;;5.13;;
74415;SDS011;62850;42.428;25.618;2023-04-16T11:19:43;15.18;;;4.35;;
74415;SDS011;62850;42.428;25.618;2023-04-16T11:22:12;14.40;;;5.00;;
74415;SDS011;62850;42.428;25.618;2023-04-16T11:24:41;14.75;;;5.63;;
74415;SDS011;62850;42.428;25.618;2023-04-16T11:27:07;16.40;;;6.85;;
74415;SDS011;62850;42.428;25.618;2023-04-16T11:29:33;12.90;;;6.60;;
74415;SDS011;62850;42.428;25.618;2023-04-16T11:31:58;14.93;;;6.35;;
74415;SDS011;62850;42.428;25.618;2023-04-16T11:34:24;11.02;;;5.88;;
74415;SDS011;62850;42.428;25.618;2023-04-16T11:36:50;17.15;;;6.45;;
74415;SDS011;62850;42.428;25.618;2023-04-16T11:39:17;16.92;;;5.53;;
74415;SDS011;62850;42.428;25.618;2023-04-16T11:41:46;12.80;;;5.32;;
74415;SDS011;62850;42.428;25.618;2023-04-16T11:46:52;14.25;;;5.18;;
74415;SDS011;62850;42.428;25.618;2023-04-16T11:49:27;12.85;;;5.20;;
74415;SDS011;62850;42.428;25.618;2023-04-16T11:51:54;11.07;;;5.10;;
74415;SDS011;62850;42.428;25.618;2023-04-16T11:54:20;13.70;;;4.88;;
74415;SDS011;62850;42.428;25.618;2023-04-16T11:56:47;14.60;;;5.53;;
74415;SDS011;62850;42.428;25.618;2023-04-16T11:59:15;12.65;;;5.13;;
74415;SDS011;62850;42.428;25.618;2023-04-16T12:01:47;14.65;;;4.88;;
74415;SDS011;62850;42.428;25.618;2023-04-16T12:04:14;11.75;;;5.05;;
74415;SDS011;62850;42.428;25.618;2023-04-16T12:06:45;14.32;;;5.28;;
74415;SDS011;62850;42.428;25.618;2023-04-16T12:09:36;10.60;;;4.90;;
74415;SDS011;62850;42.428;25.618;2023-04-16T12:12:04;10.40;;;5.22;;
74415;SDS011;62850;42.428;25.618;2023-04-16T12:14:30;10.15;;;5.05;;
74415;SDS011;62850;42.428;25.618;2023-04-16T12:17:03;10.70;;;4.38;;
74415;SDS011;62850;42.428;25.618;2023-04-16T12:19:51;9.75;;;4.25;;
74415;SDS011;62850;42.428;25.618;2023-04-16T12:22:30;8.27;;;4.50;;
74415;SDS011;62850;42.428;25.618;2023-04-16T12:24:59;11.38;;;5.03;;
74415;SDS011;62850;42.428;25.618;2023-04-16T12:27:39;9.07;;;4.60;;
74415;SDS011;62850;42.428;25.618;2023-04-16T12:30:06;9.35;;;4.25;;
74415;SDS011;62850;42.428;25.618;2023-04-16T12:32:32;13.02;;;5.05;;
74415;SDS011;62850;42.428;25.618;2023-04-16T12:34:57;10.13;;;4.78;;
74415;SDS011;62850;42.428;25.618;2023-04-16T12:37:23;7.78;;;4.38;;
74415;SDS011;62850;42.428;25.618;2023-04-16T12:39:48;12.38;;;4.80;;
74415;SDS011;62850;42.428;25.618;2023-04-16T12:42:14;9.60;;;4.55;;
74415;SDS011;62850;42.428;25.618;2023-04-16T12:44:40;9.55;;;4.72;;
74415;SDS011;62850;42.428;25.618;2023-04-16T12:47:05;11.85;;;5.10;;
74415;SDS011;62850;42.428;25.618;2023-04-16T12:49:30;11.55;;;4.72;;
74415;SDS011;62850;42.428;25.618;2023-04-16T12:51:56;9.57;;;4.68;;
74415;SDS011;62850;42.428;25.618;2023-04-16T12:54:22;10.60;;;4.10;;
74415;SDS011;62850;42.428;25.618;2023-04-16T12:56:47;8.73;;;4.45;;
74415;SDS011;62850;42.428;25.618;2023-04-16T12:59:12;9.85;;;4.80;;
74415;SDS011;62850;42.428;25.618;2023-04-16T13:01:38;11.55;;;4.75;;
74415;SDS011;62850;42.428;25.618;2023-04-16T13:04:03;10.18;;;4.47;;
74415;SDS011;62850;42.428;25.618;2023-04-16T13:06:29;9.68;;;4.53;;
74415;SDS011;62850;42.428;25.618;2023-04-16T13:08:57;8.00;;;4.13;;
74415;SDS011;62850;42.428;25.618;2023-04-16T13:11:23;7.88;;;4.05;;
74415;SDS011;62850;42.428;25.618;2023-04-16T13:13:48;7.75;;;3.60;;
74415;SDS011;62850;42.428;25.618;2023-04-16T13:16:14;9.30;;;3.85;;
74415;SDS011;62850;42.428;25.618;2023-04-16T13:18:40;9.93;;;4.07;;
74415;SDS011;62850;42.428;25.618;2023-04-16T13:21:06;8.25;;;3.60;;
74415;SDS011;62850;42.428;25.618;2023-04-16T13:23:33;10.68;;;3.55;;
74415;SDS011;62850;42.428;25.618;2023-04-16T13:25:58;7.40;;;3.55;;
74415;SDS011;62850;42.428;25.618;2023-04-16T13:28:24;8.27;;;4.10;;
74415;SDS011;62850;42.428;25.618;2023-04-16T13:30:50;7.18;;;3.53;;
74415;SDS011;62850;42.428;25.618;2023-04-16T13:33:17;8.63;;;3.95;;
74415;SDS011;62850;42.428;25.618;2023-04-16T13:35:43;14.10;;;5.40;;
74415;SDS011;62850;42.428;25.618;2023-04-16T13:38:08;7.65;;;3.72;;
74415;SDS011;62850;42.428;25.618;2023-04-16T13:40:34;10.00;;;3.80;;
74415;SDS011;62850;42.428;25.618;2023-04-16T13:43:00;10.82;;;4.00;;
74415;SDS011;62850;42.428;25.618;2023-04-16T13:45:25;9.48;;;3.70;;
74415;SDS011;62850;42.428;25.618;2023-04-16T13:47:53;6.47;;;3.33;;
74415;SDS011;62850;42.428;25.618;2023-04-16T13:50:18;8.20;;;3.72;;
74415;SDS011;62850;42.428;25.618;2023-04-16T13:52:44;7.47;;;2.78;;
74415;SDS011;62850;42.428;25.618;2023-04-16T13:55:09;9.80;;;3.30;;
74415;SDS011;62850;42.428;25.618;2023-04-16T13:57:38;7.97;;;2.15;;
74415;SDS011;62850;42.428;25.618;2023-04-16T14:00:05;5.03;;;2.03;;
74415;SDS011;62850;42.428;25.618;2023-04-16T14:02:31;6.88;;;2.05;;
74415;SDS011;62850;42.428;25.618;2023-04-16T14:04:57;6.10;;;2.22;;
74415;SDS011;62850;42.428;25.618;2023-04-16T14:07:22;6.32;;;1.85;;
74415;SDS011;62850;42.428;25.618;2023-04-16T14:09:51;7.78;;;2.28;;
74415;SDS011;62850;42.428;25.618;2023-04-16T14:12:16;6.57;;;2.40;;
74415;SDS011;62850;42.428;25.618;2023-04-16T14:14:42;8.82;;;2.60;;
74415;SDS011;62850;42.428;25.618;2023-04-16T14:17:07;7.03;;;2.40;;
74415;SDS011;62850;42.428;25.618;2023-04-16T14:19:33;6.32;;;2.65;;
74415;SDS011;62850;42.428;25.618;2023-04-16T14:21:58;8.60;;;2.80;;
74415;SDS011;62850;42.428;25.618;2023-04-16T14:24:24;6.13;;;2.60;;
74415;SDS011;62850;42.428;25.618;2023-04-16T14:26:50;9.00;;;3.28;;
74415;SDS011;62850;42.428;25.618;2023-04-16T14:29:15;8.68;;;2.70;;
74415;SDS011;62850;42.428;25.618;2023-04-16T14:31:41;7.63;;;2.88;;
74415;SDS011;62850;42.428;25.618;2023-04-16T14:34:06;8.27;;;3.00;;
74415;SDS011;62850;42.428;25.618;2023-04-16T14:36:31;6.90;;;2.47;;
74415;SDS011;62850;42.428;25.618;2023-04-16T14:38:57;9.60;;;3.00;;
74415;SDS011;62850;42.428;25.618;2023-04-16T14:41:22;6.40;;;2.60;;